Helen, WV (25853)

10:24 AM EST on February 12, 2016 (GMT -0500)
MullensHill | | Change Station
CLOSE
Current Station
Personal Weather Station
Location: Mullens, WV
Elevation: 1585 ft
Nearby Weather Stations
Active Advisory: Wind Chill Advisory

Elev 1585 ft 37.58 °N, 81.39 °W | Updated 3 minutes ago

Overcast
Overcast
29.7 °F
Feels Like 30 °F
N
1.6
Wind Variable Wind from North
Gusts 2.2 mph

Today
High -- | Low -- °F
--% Chance of Precip.
Yesterday
High -- | Low -- °F
Precip. -- in
Pressure 30.18 in
Visibility 10.0 miles
Clouds Overcast 6500 ft
Windchill 30 °F
Dew Point 14 °F
Humidity 51%
Rainfall 0.00 in
Snow Depth Not available.
7:18 AM 6:00 PM
Waxing Crescent, 21% visible
METAR KBKW 121451Z AUTO 16004KT 10SM OVC065 M06/M13 A3004 RMK AO2 SLP220 T10561128 57016
Pressure 30.18 in
Visibility 10.0 miles
Clouds Overcast 6500 ft
Windchill 30 °F
Dew Point 14 °F
Humidity 51%
Rainfall 0.00 in
Snow Depth Not available.
7:18 AM 6:00 PM
Waxing Crescent, 21% visible
METAR KBKW 121451Z AUTO 16004KT 10SM OVC065 M06/M13 A3004 RMK AO2 SLP220 T10561128 57016

10-Day Weather Forecast

Almanac

Astronomy

Feb. 12, 2016 Rise Set
Actual Time
Civil Twilight
Nautical Twilight
Astronomical Twilight
Moon
Length of Visible Light
Length of Day
Tomorrow will be .
, % of the Moon is Illuminated

Today's Extremes

State Highs State Lows

Community

WunderPhotos

Upload Photos

1,892,329 photos uploaded!

WunderBlog® & News

Nearby

Air Quality

  Air Quality AQ Index Pollutant
Not available.

Snow Depth

Station Depth Elevation

Earthquake Activity

City Distance Mag. Time & Date
Minimum magnitude displayed is 2.5.

Coastal Water Temperatures

Place Temperature

Stations

Nearby Weather Stations

Station Location Temp. Windchill Dew Point Humidity Wind Precip. Elev Updated Type
                   

Watches & Warnings

Wind Chill Advisory
Issued: 9:20 AM EST Feb. 12, 2016 – National Weather Service

... Wind Chill Advisory remains in effect from midnight tonight to
9 am EST Sunday...

* wind chill readings... as low as 10 to 15 below zero.

* Timing... late tonight through Saturday night.

* Winds... northwest 15 to 25 mph with gusts up to 35 mph.

* Temperatures... for tonight zero to 10 above.

* Impacts... frost bite and hypothermia are possible if
precautions are not taken.

Precautionary/preparedness actions...

A Wind Chill Advisory means that very cold air and strong winds
will combine to generate low wind chills. This will result in
frost bite and lead to hypothermia if precautions are not taken.
If you must venture outdoors... make sure you wear a hat and
gloves. Limit your exposure time outdoors.